Time;durP1;ratioP1;P1;durP2;ratioP2;P2;SDS_P1;SDS_P2;PMS_P1;PMS_P2;Temp;Humidity;BMP_temperature;BMP_pressure;BME280_temperature;BME280_humidity;BME280_pressure;Samples;Min_cycle;Max_cycle;Signal;HPM_P1;HPM_P2
2023/03/15 00:00:05;0.00;0.00;0.62;0.00;0.00;0.62;2.17;1.10;;;22.00;23.00;;;;;;2259206;61;20371;-54
2023/03/15 00:02:50;0.00;0.00;0.62;0.00;0.00;0.62;1.80;1.10;;;22.00;23.00;;;;;;2260058;61;20376;-57
2023/03/15 00:05:35;0.00;0.00;0.62;0.00;0.00;0.62;2.83;1.30;;;22.00;23.00;;;;;;2260066;61;20431;-53
2023/03/15 00:08:21;0.00;0.00;0.62;0.00;0.00;0.62;1.50;0.90;;;22.00;23.00;;;;;;2256488;61;20361;-53
2023/03/15 00:11:06;0.00;0.00;0.62;0.00;0.00;0.62;1.70;1.00;;;22.00;23.00;;;;;;2260672;61;20431;-55
2023/03/15 00:13:51;0.00;0.00;0.62;0.00;0.00;0.62;1.90;1.10;;;22.00;23.50;;;;;;2260642;61;20840;-53
2023/03/15 00:16:36;0.00;0.00;0.62;0.00;0.00;0.62;1.93;1.27;;;22.00;23.00;;;;;;2260150;61;20773;-52
2023/03/15 00:19:20;0.00;0.00;0.62;0.00;0.00;0.62;2.57;1.10;;;22.00;23.00;;;;;;2260411;61;20376;-53
2023/03/15 00:22:05;0.00;0.00;0.62;0.00;0.00;0.62;1.90;1.10;;;22.00;23.00;;;;;;2260688;61;20356;-54
2023/03/15 00:24:51;0.00;0.00;0.62;0.00;0.00;0.62;2.63;1.13;;;22.00;23.00;;;;;;2260598;61;20443;-54
2023/03/15 00:27:36;0.00;0.00;0.62;0.00;0.00;0.62;1.70;1.20;;;21.90;23.00;;;;;;2261015;61;20422;-55
2023/03/15 00:30:21;0.00;0.00;0.62;0.00;0.00;0.62;1.60;0.97;;;21.90;23.00;;;;;;2259850;61;20400;-52
2023/03/15 00:33:06;0.00;0.00;0.62;0.00;0.00;0.62;2.20;1.37;;;21.90;23.00;;;;;;2260774;61;20353;-55
2023/03/15 00:35:52;0.00;0.00;0.62;0.00;0.00;0.62;2.63;1.50;;;21.90;22.90;;;;;;2257673;61;20392;-55
2023/03/15 00:38:40;0.00;0.00;0.62;0.00;0.00;0.62;1.93;1.00;;;21.90;22.90;;;;;;2256925;61;20369;-49
2023/03/15 00:41:26;0.00;0.00;0.62;0.00;0.00;0.62;1.80;1.10;;;21.90;22.90;;;;;;2260829;61;21069;-51
2023/03/15 00:44:11;0.00;0.00;0.62;0.00;0.00;0.62;1.70;1.00;;;21.90;22.90;;;;;;2260241;61;20393;-49
2023/03/15 00:46:55;0.00;0.00;0.62;0.00;0.00;0.62;1.80;1.10;;;21.90;22.90;;;;;;2260677;61;20468;-50
2023/03/15 00:49:40;0.00;0.00;0.62;0.00;0.00;0.62;1.77;1.00;;;21.90;22.90;;;;;;2260485;61;20365;-56
2023/03/15 00:52:25;0.00;0.00;0.62;0.00;0.00;0.62;1.93;1.13;;;21.90;22.90;;;;;;2260026;61;20369;-55
2023/03/15 00:55:13;0.00;0.00;0.62;0.00;0.00;0.62;2.13;1.07;;;21.90;22.90;;;;;;2260727;61;20381;-52
2023/03/15 00:58:00;0.00;0.00;0.62;0.00;0.00;0.62;1.80;1.03;;;21.90;22.90;;;;;;2260983;61;20416;-54
2023/03/15 01:00:45;0.00;0.00;0.62;0.00;0.00;0.62;1.50;1.00;;;21.90;22.90;;;;;;2256678;61;20369;-54
2023/03/15 01:03:30;0.00;0.00;0.62;0.00;0.00;0.62;1.50;1.00;;;21.90;22.90;;;;;;2260631;61;20446;-54
2023/03/15 01:06:18;0.00;0.00;0.62;0.00;0.00;0.62;2.20;1.10;;;21.90;22.90;;;;;;2260638;61;20368;-58
2023/03/15 01:09:04;0.00;0.00;0.62;0.00;0.00;0.62;1.83;1.10;;;21.90;22.90;;;;;;2260104;61;20365;-51
2023/03/15 01:11:50;0.00;0.00;0.62;0.00;0.00;0.62;1.60;0.80;;;21.80;22.90;;;;;;2257425;61;20412;-50
2023/03/15 01:14:37;0.00;0.00;0.62;0.00;0.00;0.62;1.70;1.00;;;21.80;22.90;;;;;;2259819;61;20972;-55
2023/03/15 01:17:22;0.00;0.00;0.62;0.00;0.00;0.62;2.40;1.10;;;21.80;22.90;;;;;;2257473;61;20774;-53
2023/03/15 01:20:10;0.00;0.00;0.62;0.00;0.00;0.62;2.43;1.20;;;21.80;22.90;;;;;;2256750;61;20415;-56
2023/03/15 01:22:55;0.00;0.00;0.62;0.00;0.00;0.62;1.70;1.00;;;21.80;22.90;;;;;;2260208;61;20467;-51
2023/03/15 01:25:39;0.00;0.00;0.62;0.00;0.00;0.62;1.40;0.90;;;21.80;22.90;;;;;;2257413;61;20925;-54
2023/03/15 01:28:24;0.00;0.00;0.62;0.00;0.00;0.62;1.47;0.83;;;21.80;22.90;;;;;;2260536;61;20372;-56
2023/03/15 01:31:16;0.00;0.00;0.62;0.00;0.00;0.62;2.03;1.17;;;21.80;22.90;;;;;;2260460;61;20404;-53
2023/03/15 01:34:00;0.00;0.00;0.62;0.00;0.00;0.62;1.80;0.80;;;21.80;22.90;;;;;;2260584;61;20399;-54
2023/03/15 01:36:51;0.00;0.00;0.62;0.00;0.00;0.62;1.57;1.00;;;21.80;22.90;;;;;;2256904;61;20401;-52
2023/03/15 01:39:35;0.00;0.00;0.62;0.00;0.00;0.62;1.73;1.10;;;21.80;22.90;;;;;;2260552;61;20932;-50
2023/03/15 01:42:20;0.00;0.00;0.62;0.00;0.00;0.62;1.90;0.80;;;21.70;22.90;;;;;;2260373;61;20461;-48
2023/03/15 01:45:57;0.00;0.00;0.62;0.00;0.00;0.62;1.50;0.90;;;21.70;22.90;;;;;;2259922;61;20461;-50
2023/03/15 01:48:50;0.00;0.00;0.62;0.00;0.00;0.62;1.50;0.87;;;21.70;22.90;;;;;;2257315;61;20909;-51
2023/03/15 01:51:44;0.00;0.00;0.62;0.00;0.00;0.62;1.90;0.90;;;21.70;22.90;;;;;;2257072;61;20836;-49
2023/03/15 01:54:35;0.00;0.00;0.62;0.00;0.00;0.62;1.90;0.90;;;21.70;22.90;;;;;;2254288;61;20848;-51
2023/03/15 01:57:27;0.00;0.00;0.62;0.00;0.00;0.62;1.90;1.10;;;21.70;22.90;;;;;;2257464;61;20365;-52
2023/03/15 02:00:15;0.00;0.00;0.62;0.00;0.00;0.62;1.77;1.10;;;21.70;22.90;;;;;;2253794;61;20392;-52
2023/03/15 02:03:18;0.00;0.00;0.62;0.00;0.00;0.62;2.53;1.27;;;21.70;22.90;;;;;;2260390;61;20835;-50
2023/03/15 02:06:08;0.00;0.00;0.62;0.00;0.00;0.62;1.93;1.00;;;21.70;22.90;;;;;;2256669;61;20501;-50
2023/03/15 02:09:07;0.00;0.00;0.62;0.00;0.00;0.62;1.60;0.80;;;21.70;22.90;;;;;;2257139;61;20369;-59
2023/03/15 02:11:56;0.00;0.00;0.62;0.00;0.00;0.62;1.60;0.80;;;21.70;22.90;;;;;;2257417;61;20412;-56
2023/03/15 02:14:42;0.00;0.00;0.62;0.00;0.00;0.62;1.90;0.90;;;21.70;22.90;;;;;;2260030;61;20385;-57
2023/03/15 02:17:37;0.00;0.00;0.62;0.00;0.00;0.62;1.67;1.07;;;21.70;22.90;;;;;;2257350;61;20769;-55
2023/03/15 02:20:34;0.00;0.00;0.62;0.00;0.00;0.62;1.70;0.87;;;21.70;22.90;;;;;;2256734;61;20781;-52
2023/03/15 02:23:23;0.00;0.00;0.62;0.00;0.00;0.62;1.50;0.80;;;21.70;22.90;;;;;;2257254;61;20428;-56
2023/03/15 02:26:21;0.00;0.00;0.62;0.00;0.00;0.62;2.47;0.93;;;21.70;22.90;;;;;;2257064;61;20415;-56
2023/03/15 02:29:07;0.00;0.00;0.62;0.00;0.00;0.62;1.90;1.03;;;21.70;22.90;;;;;;2256416;61;20404;-56
2023/03/15 02:31:53;0.00;0.00;0.62;0.00;0.00;0.62;2.37;0.90;;;21.70;22.90;;;;;;2257227;61;20458;-55
2023/03/15 02:34:38;0.00;0.00;0.62;0.00;0.00;0.62;2.00;1.20;;;21.70;22.90;;;;;;2260361;61;20380;-54
2023/03/15 02:37:23;0.00;0.00;0.62;0.00;0.00;0.62;1.27;0.70;;;21.70;22.90;;;;;;2260127;61;20901;-52
2023/03/15 02:40:17;0.00;0.00;0.62;0.00;0.00;0.62;1.93;0.80;;;21.70;22.80;;;;;;2260094;61;20380;-53
2023/03/15 02:43:05;0.00;0.00;0.62;0.00;0.00;0.62;1.90;0.90;;;21.70;22.80;;;;;;2259671;61;21012;-56
2023/03/15 02:45:51;0.00;0.00;0.62;0.00;0.00;0.62;2.63;1.03;;;21.70;22.80;;;;;;2257101;61;20396;-57
2023/03/15 02:48:38;0.00;0.00;0.62;0.00;0.00;0.62;1.93;0.90;;;21.70;22.80;;;;;;2260431;61;20789;-55
2023/03/15 02:51:26;0.00;0.00;0.62;0.00;0.00;0.62;1.60;0.87;;;21.70;22.80;;;;;;2259684;61;20424;-55
2023/03/15 02:54:11;0.00;0.00;0.62;0.00;0.00;0.62;1.90;1.00;;;21.70;22.80;;;;;;2256696;61;20397;-51
2023/03/15 02:56:55;0.00;0.00;0.62;0.00;0.00;0.62;1.60;0.90;;;21.70;22.70;;;;;;2257051;61;20408;-54
2023/03/15 02:59:43;0.00;0.00;0.62;0.00;0.00;0.62;3.00;0.90;;;21.70;22.70;;;;;;2256493;61;20400;-54
2023/03/15 03:02:29;0.00;0.00;0.62;0.00;0.00;0.62;1.40;0.80;;;21.70;22.70;;;;;;2257099;61;20430;-55
2023/03/15 03:05:15;0.00;0.00;0.62;0.00;0.00;0.62;1.60;0.80;;;21.70;22.70;;;;;;2256548;61;20545;-62
2023/03/15 03:08:01;0.00;0.00;0.62;0.00;0.00;0.62;1.73;0.90;;;21.70;22.70;;;;;;2257324;61;20821;-57
2023/03/15 03:10:46;0.00;0.00;0.62;0.00;0.00;0.62;1.40;0.70;;;21.70;22.60;;;;;;2256836;61;20369;-57
2023/03/15 03:13:32;0.00;0.00;0.62;0.00;0.00;0.62;2.00;0.90;;;21.70;22.60;;;;;;2256379;61;20361;-58
2023/03/15 03:16:21;0.00;0.00;0.62;0.00;0.00;0.62;2.80;1.20;;;21.70;22.60;;;;;;2257319;61;20364;-53
2023/03/15 03:19:08;0.00;0.00;0.62;0.00;0.00;0.62;2.07;1.07;;;21.70;22.60;;;;;;2259838;61;20410;-60
2023/03/15 03:21:53;0.00;0.00;0.62;0.00;0.00;0.62;2.13;1.00;;;21.70;22.60;;;;;;2256710;61;20369;-54
2023/03/15 03:24:38;0.00;0.00;0.62;0.00;0.00;0.62;2.03;0.90;;;21.70;22.60;;;;;;2256865;61;20447;-51
2023/03/15 03:27:23;0.00;0.00;0.62;0.00;0.00;0.62;2.00;1.00;;;21.70;22.60;;;;;;2256440;61;20418;-59
2023/03/15 03:30:12;0.00;0.00;0.62;0.00;0.00;0.62;1.37;0.70;;;21.70;22.60;;;;;;2256639;61;20408;-55
2023/03/15 03:33:00;0.00;0.00;0.62;0.00;0.00;0.62;1.80;0.80;;;21.70;22.60;;;;;;2257106;61;20897;-54
2023/03/15 03:35:46;0.00;0.00;0.62;0.00;0.00;0.62;1.50;0.90;;;21.70;22.60;;;;;;2256088;61;20388;-54
2023/03/15 03:38:31;0.00;0.00;0.62;0.00;0.00;0.62;1.50;0.97;;;21.70;22.50;;;;;;2257106;61;20404;-54
2023/03/15 03:41:20;0.00;0.00;0.62;0.00;0.00;0.62;2.50;0.80;;;21.70;22.60;;;;;;2256893;61;20360;-57
2023/03/15 03:44:05;0.00;0.00;0.62;0.00;0.00;0.62;1.57;1.00;;;21.70;22.50;;;;;;2259657;61;20396;-55
2023/03/15 03:46:50;0.00;0.00;0.62;0.00;0.00;0.62;1.70;0.80;;;21.70;22.60;;;;;;2257037;61;20865;-57
2023/03/15 03:49:35;0.00;0.00;0.62;0.00;0.00;0.62;1.70;0.80;;;21.70;22.50;;;;;;2256101;61;20384;-57
2023/03/15 03:52:21;0.00;0.00;0.62;0.00;0.00;0.62;1.50;0.80;;;21.70;22.60;;;;;;2257006;61;20412;-52
2023/03/15 03:55:08;0.00;0.00;0.62;0.00;0.00;0.62;1.70;0.90;;;21.70;22.60;;;;;;2256826;61;20439;-56
2023/03/15 03:57:53;0.00;0.00;0.62;0.00;0.00;0.62;1.40;0.80;;;21.70;22.60;;;;;;2256234;61;20419;-53
2023/03/15 04:00:59;0.00;0.00;0.62;0.00;0.00;0.62;1.60;0.80;;;21.60;22.50;;;;;;2254598;61;20374;-55
2023/03/15 04:03:50;0.00;0.00;0.62;0.00;0.00;0.62;1.87;0.80;;;21.60;22.50;;;;;;2256426;61;20455;-54
2023/03/15 04:06:37;0.00;0.00;0.62;0.00;0.00;0.62;1.57;0.83;;;21.60;22.50;;;;;;2257034;61;20365;-57
2023/03/15 04:09:23;0.00;0.00;0.62;0.00;0.00;0.62;1.60;0.80;;;21.60;22.50;;;;;;2256484;61;20411;-54
2023/03/15 04:12:09;0.00;0.00;0.62;0.00;0.00;0.62;1.90;1.00;;;21.60;22.50;;;;;;2256127;61;20458;-61
2023/03/15 04:14:57;0.00;0.00;0.62;0.00;0.00;0.62;1.30;0.70;;;21.60;22.50;;;;;;2256588;61;20835;-57
2023/03/15 04:17:46;0.00;0.00;0.62;0.00;0.00;0.62;1.50;0.80;;;21.60;22.50;;;;;;2256841;61;20365;-57
2023/03/15 04:20:34;0.00;0.00;0.62;0.00;0.00;0.62;2.60;1.10;;;21.60;22.50;;;;;;2256165;61;20365;-52
2023/03/15 04:23:22;0.00;0.00;0.62;0.00;0.00;0.62;1.70;0.90;;;21.60;22.50;;;;;;2257041;61;20389;-53
2023/03/15 04:26:27;0.00;0.00;0.62;0.00;0.00;0.62;1.50;0.90;;;21.60;23.10;;;;;;2259372;61;20364;-53
2023/03/15 04:29:26;0.00;0.00;0.62;0.00;0.00;0.62;1.40;0.80;;;21.60;22.50;;;;;;2256803;61;20504;-59
2023/03/15 04:32:30;0.00;0.00;0.62;0.00;0.00;0.62;2.20;1.00;;;21.60;22.50;;;;;;2259879;61;20427;-52
2023/03/15 04:35:32;0.00;0.00;0.62;0.00;0.00;0.62;1.40;0.70;;;21.60;22.50;;;;;;2256253;61;20411;-57
2023/03/15 04:38:45;0.00;0.00;0.62;0.00;0.00;0.62;1.50;0.80;;;21.50;22.50;;;;;;2260232;61;20428;-52
2023/03/15 04:41:50;0.00;0.00;0.62;0.00;0.00;0.62;1.83;0.90;;;21.50;22.50;;;;;;2259338;61;20375;-59
2023/03/15 04:44:45;0.00;0.00;0.62;0.00;0.00;0.62;1.67;0.80;;;21.50;22.50;;;;;;2256770;61;20384;-56
2023/03/15 04:47:36;0.00;0.00;0.62;0.00;0.00;0.62;1.70;0.97;;;21.50;22.50;;;;;;2259994;61;20372;-53
2023/03/15 04:50:36;0.00;0.00;0.62;0.00;0.00;0.62;1.33;0.73;;;21.50;22.50;;;;;;2259302;61;20369;-55
2023/03/15 04:53:42;0.00;0.00;0.62;0.00;0.00;0.62;1.63;0.80;;;21.50;22.50;;;;;;2256770;61;20420;-54
2023/03/15 04:56:32;0.00;0.00;0.62;0.00;0.00;0.62;1.50;0.73;;;21.50;22.50;;;;;;2260282;61;20477;-56
2023/03/15 04:59:30;0.00;0.00;0.62;0.00;0.00;0.62;1.60;0.83;;;21.50;22.50;;;;;;2257117;61;20365;-56
2023/03/15 05:02:40;0.00;0.00;0.62;0.00;0.00;0.62;1.40;0.80;;;21.50;22.50;;;;;;2260573;61;20369;-54
2023/03/15 05:05:34;0.00;0.00;0.62;0.00;0.00;0.62;1.63;0.90;;;21.50;22.60;;;;;;2260472;61;20424;-58
2023/03/15 05:08:32;0.00;0.00;0.62;0.00;0.00;0.62;1.37;0.70;;;21.50;22.50;;;;;;2257365;61;21037;-53
2023/03/15 05:11:32;0.00;0.00;0.62;0.00;0.00;0.62;1.30;0.70;;;21.50;22.60;;;;;;2256840;61;20416;-54
2023/03/15 05:14:33;0.00;0.00;0.62;0.00;0.00;0.62;1.38;0.70;;;21.50;22.60;;;;;;2257108;61;20315;-52
2023/03/15 05:17:23;0.00;0.00;0.62;0.00;0.00;0.62;1.40;0.70;;;21.40;22.50;;;;;;2260768;61;20311;-55
2023/03/15 05:20:21;0.00;0.00;0.62;0.00;0.00;0.62;1.30;0.70;;;21.40;22.50;;;;;;2256737;61;20404;-50
2023/03/15 05:23:26;0.00;0.00;0.62;0.00;0.00;0.62;1.30;0.60;;;21.40;22.50;;;;;;2260403;61;20465;-54
2023/03/15 05:26:29;0.00;0.00;0.62;0.00;0.00;0.62;1.47;0.70;;;21.40;22.50;;;;;;2259813;61;20439;-57
2023/03/15 05:29:33;0.00;0.00;0.62;0.00;0.00;0.62;1.20;0.70;;;21.40;22.50;;;;;;2257206;61;20364;-54
2023/03/15 05:32:38;0.00;0.00;0.62;0.00;0.00;0.62;1.40;0.80;;;21.40;22.50;;;;;;2260465;61;20800;-54
2023/03/15 05:35:54;0.00;0.00;0.62;0.00;0.00;0.62;1.50;0.80;;;21.40;22.50;;;;;;2253490;61;20447;-56
2023/03/15 05:38:52;0.00;0.00;0.62;0.00;0.00;0.62;1.30;0.60;;;21.40;22.60;;;;;;2257154;61;20445;-51
2023/03/15 05:42:07;0.00;0.00;0.62;0.00;0.00;0.62;1.70;0.90;;;21.40;23.10;;;;;;2258978;61;20404;-54
2023/03/15 05:45:09;0.00;0.00;0.62;0.00;0.00;0.62;1.50;0.90;;;21.40;22.60;;;;;;2260337;61;20945;-57
2023/03/15 05:47:57;0.00;0.00;0.62;0.00;0.00;0.62;1.40;0.70;;;21.40;22.60;;;;;;2259741;61;20407;-58
2023/03/15 05:50:50;0.00;0.00;0.62;0.00;0.00;0.62;1.40;0.70;;;21.40;22.60;;;;;;2257062;61;20910;-54
2023/03/15 05:54:03;0.00;0.00;0.62;0.00;0.00;0.62;1.20;0.60;;;21.40;22.60;;;;;;2255266;61;20376;-54
2023/03/15 05:56:56;0.00;0.00;0.62;0.00;0.00;0.62;2.17;0.90;;;21.40;22.60;;;;;;2256682;61;20373;-56
2023/03/15 05:59:55;0.00;0.00;0.62;0.00;0.00;0.62;1.50;0.70;;;21.30;22.50;;;;;;2256927;61;20836;-54
2023/03/15 06:03:00;0.00;0.00;0.62;0.00;0.00;0.62;1.40;0.70;;;21.30;22.50;;;;;;2259674;61;20403;-56
2023/03/15 06:06:08;0.00;0.00;0.62;0.00;0.00;0.62;1.80;0.80;;;21.40;22.60;;;;;;2257236;61;20372;-56
2023/03/15 06:08:57;0.00;0.00;0.62;0.00;0.00;0.62;1.30;0.70;;;21.30;22.50;;;;;;2259929;61;20401;-57
2023/03/15 06:11:42;0.00;0.00;0.62;0.00;0.00;0.62;1.50;0.70;;;21.30;22.50;;;;;;2256837;61;20893;-57
2023/03/15 06:14:30;0.00;0.00;0.62;0.00;0.00;0.62;1.63;0.77;;;21.30;22.60;;;;;;2257042;61;20380;-57
2023/03/15 06:17:18;0.00;0.00;0.62;0.00;0.00;0.62;1.20;0.60;;;21.30;22.60;;;;;;2257130;61;20357;-56
2023/03/15 06:20:06;0.00;0.00;0.62;0.00;0.00;0.62;1.27;0.70;;;21.30;22.50;;;;;;2256868;61;20396;-57
2023/03/15 06:22:52;0.00;0.00;0.62;0.00;0.00;0.62;1.40;0.70;;;21.30;22.50;;;;;;2257219;61;20373;-55
2023/03/15 06:25:50;0.00;0.00;0.62;0.00;0.00;0.62;1.20;0.60;;;21.30;22.50;;;;;;2256633;61;20976;-53
2023/03/15 06:28:36;0.00;0.00;0.62;0.00;0.00;0.62;1.50;0.60;;;21.30;22.60;;;;;;2257226;61;20364;-54
2023/03/15 06:31:21;0.00;0.00;0.62;0.00;0.00;0.62;1.70;0.80;;;21.30;22.60;;;;;;2257265;61;20901;-53
2023/03/15 06:34:18;0.00;0.00;0.62;0.00;0.00;0.62;1.50;0.80;;;21.30;22.60;;;;;;2256783;61;20791;-53
2023/03/15 06:37:05;0.00;0.00;0.62;0.00;0.00;0.62;1.50;0.73;;;21.30;22.60;;;;;;2257174;61;20843;-55
2023/03/15 06:39:52;0.00;0.00;0.62;0.00;0.00;0.62;1.97;0.83;;;21.30;22.60;;;;;;2256315;61;20680;-50
2023/03/15 06:42:38;0.00;0.00;0.62;0.00;0.00;0.62;1.37;0.70;;;21.30;22.60;;;;;;2260520;61;20852;-51
2023/03/15 06:45:23;0.00;0.00;0.62;0.00;0.00;0.62;1.40;0.80;;;21.30;22.60;;;;;;2256670;61;20492;-57
2023/03/15 06:48:08;0.00;0.00;0.62;0.00;0.00;0.62;1.80;0.90;;;21.30;22.60;;;;;;2256627;61;20897;-50
2023/03/15 06:50:53;0.00;0.00;0.62;0.00;0.00;0.62;1.40;0.80;;;21.30;22.60;;;;;;2256854;61;20357;-57
2023/03/15 06:53:39;0.00;0.00;0.62;0.00;0.00;0.62;1.40;0.70;;;21.30;22.60;;;;;;2257036;61;20357;-50
2023/03/15 06:56:24;0.00;0.00;0.62;0.00;0.00;0.62;2.00;1.00;;;21.30;22.60;;;;;;2256680;61;20391;-50
2023/03/15 06:59:10;0.00;0.00;0.62;0.00;0.00;0.62;1.50;0.90;;;21.30;22.60;;;;;;2259945;61;20412;-53
2023/03/15 07:01:54;0.00;0.00;0.62;0.00;0.00;0.62;1.40;0.80;;;21.30;22.70;;;;;;2259744;61;20447;-52
2023/03/15 07:04:39;0.00;0.00;0.62;0.00;0.00;0.62;1.60;0.93;;;21.30;22.60;;;;;;2260038;61;20393;-57
2023/03/15 07:07:24;0.00;0.00;0.62;0.00;0.00;0.62;1.30;0.80;;;21.30;22.60;;;;;;2260352;61;20465;-54
2023/03/15 07:10:11;0.00;0.00;0.62;0.00;0.00;0.62;1.77;0.90;;;21.30;22.60;;;;;;2259452;61;20454;-57
2023/03/15 07:12:56;0.00;0.00;0.62;0.00;0.00;0.62;1.50;0.90;;;21.30;22.70;;;;;;2260300;61;20479;-54
2023/03/15 07:15:40;0.00;0.00;0.62;0.00;0.00;0.62;2.90;1.20;;;21.30;22.70;;;;;;2257073;61;20420;-58
2023/03/15 07:18:25;0.00;0.00;0.62;0.00;0.00;0.62;2.00;1.00;;;21.30;22.70;;;;;;2259534;61;20361;-57
2023/03/15 07:21:09;0.00;0.00;0.62;0.00;0.00;0.62;1.63;0.93;;;21.30;22.70;;;;;;2259893;61;20400;-55
2023/03/15 07:23:54;0.00;0.00;0.62;0.00;0.00;0.62;2.13;1.20;;;21.30;22.70;;;;;;2259850;61;20435;-53
2023/03/15 07:26:40;0.00;0.00;0.62;0.00;0.00;0.62;1.90;1.30;;;21.30;22.70;;;;;;2260302;61;20361;-50
2023/03/15 07:29:25;0.00;0.00;0.62;0.00;0.00;0.62;3.07;1.30;;;21.30;22.70;;;;;;2259924;61;20392;-53
2023/03/15 07:32:10;0.00;0.00;0.62;0.00;0.00;0.62;1.80;1.13;;;21.30;22.70;;;;;;2259764;61;20377;-51
2023/03/15 07:34:57;0.00;0.00;0.62;0.00;0.00;0.62;1.70;1.00;;;21.30;22.70;;;;;;2259962;61;20377;-53
2023/03/15 07:37:41;0.00;0.00;0.62;0.00;0.00;0.62;2.23;1.17;;;21.30;22.70;;;;;;2260266;61;20360;-50
2023/03/15 07:40:26;0.00;0.00;0.62;0.00;0.00;0.62;1.90;1.10;;;21.30;22.70;;;;;;2256025;61;20383;-55
2023/03/15 07:43:12;0.00;0.00;0.62;0.00;0.00;0.62;2.00;1.23;;;21.30;22.70;;;;;;2260064;61;20762;-51
2023/03/15 07:45:57;0.00;0.00;0.62;0.00;0.00;0.62;1.50;0.90;;;21.40;22.80;;;;;;2259886;61;20389;-57
2023/03/15 07:48:42;0.00;0.00;0.62;0.00;0.00;0.62;2.33;1.23;;;21.30;22.70;;;;;;2260144;61;20365;-52
2023/03/15 07:51:26;0.00;0.00;0.62;0.00;0.00;0.62;1.93;1.17;;;21.30;22.70;;;;;;2260420;61;20365;-52
2023/03/15 07:54:11;0.00;0.00;0.62;0.00;0.00;0.62;2.23;1.13;;;21.30;22.70;;;;;;2259139;61;20951;-53
2023/03/15 07:56:56;0.00;0.00;0.62;0.00;0.00;0.62;1.77;1.17;;;21.30;22.70;;;;;;2260327;61;20360;-53
2023/03/15 07:59:42;0.00;0.00;0.62;0.00;0.00;0.62;2.60;1.20;;;21.30;22.70;;;;;;2259673;61;20777;-57
2023/03/15 08:02:27;0.00;0.00;0.62;0.00;0.00;0.62;1.90;1.30;;;21.30;22.70;;;;;;2259474;61;20488;-51
2023/03/15 08:05:12;0.00;0.00;0.62;0.00;0.00;0.62;2.53;1.40;;;21.30;22.70;;;;;;2260038;61;20481;-54
2023/03/15 08:07:57;0.00;0.00;0.62;0.00;0.00;0.62;2.63;1.60;;;21.30;22.70;;;;;;2260158;61;20378;-53
2023/03/15 08:10:43;0.00;0.00;0.62;0.00;0.00;0.62;2.30;1.60;;;21.30;22.70;;;;;;2259483;61;20373;-58
2023/03/15 08:13:28;0.00;0.00;0.62;0.00;0.00;0.62;2.73;1.50;;;21.30;22.70;;;;;;2260102;61;20404;-52
2023/03/15 08:16:14;0.00;0.00;0.62;0.00;0.00;0.62;2.90;1.90;;;21.30;22.70;;;;;;2259347;61;20357;-56
2023/03/15 08:18:59;0.00;0.00;0.62;0.00;0.00;0.62;2.50;1.80;;;21.30;22.70;;;;;;2259960;61;20364;-56
2023/03/15 08:21:44;0.00;0.00;0.62;0.00;0.00;0.62;2.17;1.40;;;21.30;22.80;;;;;;2260149;61;20361;-52
2023/03/15 08:24:29;0.00;0.00;0.62;0.00;0.00;0.62;2.93;1.60;;;21.30;22.80;;;;;;2259099;61;20384;-53
2023/03/15 08:27:13;0.00;0.00;0.62;0.00;0.00;0.62;2.40;2.00;;;21.30;22.80;;;;;;2256838;61;20407;-55
2023/03/15 08:29:58;0.00;0.00;0.62;0.00;0.00;0.62;2.73;1.70;;;21.30;22.80;;;;;;2260258;61;20391;-60
2023/03/15 08:32:46;0.00;0.00;0.62;0.00;0.00;0.62;3.53;2.43;;;21.40;22.80;;;;;;2260347;61;20361;-52
2023/03/15 08:35:33;0.00;0.00;0.62;0.00;0.00;0.62;3.20;2.20;;;21.40;22.80;;;;;;2260784;61;21021;-51
2023/03/15 08:38:17;0.00;0.00;0.62;0.00;0.00;0.62;3.40;2.50;;;21.30;22.80;;;;;;2260089;61;20345;-52
2023/03/15 08:41:02;0.00;0.00;0.62;0.00;0.00;0.62;3.97;2.80;;;21.40;22.80;;;;;;2260724;61;20367;-53
2023/03/15 08:43:47;0.00;0.00;0.62;0.00;0.00;0.62;4.50;2.00;;;21.40;22.80;;;;;;2260693;61;20500;-54
2023/03/15 08:46:32;0.00;0.00;0.62;0.00;0.00;0.62;4.70;3.10;;;21.40;22.80;;;;;;2260001;61;20893;-54
2023/03/15 08:49:18;0.00;0.00;0.62;0.00;0.00;0.62;3.77;3.10;;;21.40;22.80;;;;;;2260601;61;20427;-53
2023/03/15 08:52:03;0.00;0.00;0.62;0.00;0.00;0.62;5.07;3.23;;;21.40;22.90;;;;;;2260800;61;20440;-53
2023/03/15 08:54:48;0.00;0.00;0.62;0.00;0.00;0.62;5.13;3.10;;;21.40;22.80;;;;;;2259710;61;20377;-55
2023/03/15 08:57:33;0.00;0.00;0.62;0.00;0.00;0.62;3.90;3.20;;;21.40;22.90;;;;;;2260725;61;20762;-50
2023/03/15 09:00:24;0.00;0.00;0.62;0.00;0.00;0.62;4.90;4.10;;;21.40;22.90;;;;;;2259803;61;21112;-58
2023/03/15 09:03:10;0.00;0.00;0.62;0.00;0.00;0.62;4.77;3.97;;;21.40;22.90;;;;;;2260581;61;20817;-53
2023/03/15 09:05:57;0.00;0.00;0.62;0.00;0.00;0.62;5.77;3.83;;;21.40;22.90;;;;;;2260602;61;20397;-56
2023/03/15 09:08:42;0.00;0.00;0.62;0.00;0.00;0.62;6.20;4.67;;;21.40;22.90;;;;;;2260102;61;20392;-50
2023/03/15 09:11:27;0.00;0.00;0.62;0.00;0.00;0.62;5.33;3.87;;;21.40;22.90;;;;;;2260525;61;20384;-52
2023/03/15 09:14:12;0.00;0.00;0.62;0.00;0.00;0.62;6.23;4.43;;;21.40;22.90;;;;;;2260672;61;20914;-54
2023/03/15 09:16:56;0.00;0.00;0.62;0.00;0.00;0.62;6.50;4.70;;;21.40;22.90;;;;;;2260306;61;20400;-56
2023/03/15 09:19:41;0.00;0.00;0.62;0.00;0.00;0.62;6.80;5.13;;;21.50;22.90;;;;;;2256933;61;20412;-50
2023/03/15 09:22:27;0.00;0.00;0.62;0.00;0.00;0.62;5.60;4.80;;;21.50;22.90;;;;;;2260159;61;20404;-53
2023/03/15 09:25:12;0.00;0.00;0.62;0.00;0.00;0.62;6.70;5.23;;;21.50;23.00;;;;;;2260539;61;20399;-56
2023/03/15 09:27:57;0.00;0.00;0.62;0.00;0.00;0.62;6.00;5.13;;;21.50;22.90;;;;;;2260507;61;20922;-54
2023/03/15 09:30:42;0.00;0.00;0.62;0.00;0.00;0.62;7.23;5.83;;;21.50;22.90;;;;;;2259555;61;20361;-50
2023/03/15 09:33:27;0.00;0.00;0.62;0.00;0.00;0.62;6.10;5.00;;;21.50;22.90;;;;;;2260487;61;20978;-55
2023/03/15 09:36:11;0.00;0.00;0.62;0.00;0.00;0.62;6.07;5.00;;;21.50;22.90;;;;;;2260706;61;20618;-55
2023/03/15 09:38:57;0.00;0.00;0.62;0.00;0.00;0.62;7.20;6.00;;;21.50;22.90;;;;;;2259642;61;20453;-55
2023/03/15 09:41:44;0.00;0.00;0.62;0.00;0.00;0.62;6.23;4.67;;;21.50;22.90;;;;;;2260502;61;20391;-52
2023/03/15 09:44:43;0.00;0.00;0.62;0.00;0.00;0.62;7.07;5.23;;;21.60;23.00;;;;;;2260272;61;20431;-56
2023/03/15 09:47:38;0.00;0.00;0.62;0.00;0.00;0.62;6.07;5.37;;;21.60;23.00;;;;;;2260533;61;20581;-53
2023/03/15 09:50:28;0.00;0.00;0.62;0.00;0.00;0.62;6.90;5.60;;;21.60;23.00;;;;;;2260337;61;20373;-57
2023/03/15 09:53:22;0.00;0.00;0.62;0.00;0.00;0.62;7.13;6.03;;;21.60;23.00;;;;;;2259662;61;20361;-53
2023/03/15 09:56:22;0.00;0.00;0.62;0.00;0.00;0.62;7.70;5.40;;;21.60;23.00;;;;;;2260178;61;20477;-53
2023/03/15 09:59:09;0.00;0.00;0.62;0.00;0.00;0.62;6.50;5.37;;;21.60;23.00;;;;;;2260282;61;20853;-53
2023/03/15 10:01:55;0.00;0.00;0.62;0.00;0.00;0.62;7.50;6.07;;;21.60;23.00;;;;;;2260428;61;20884;-50
2023/03/15 10:04:43;0.00;0.00;0.62;0.00;0.00;0.62;9.80;6.30;;;21.60;23.00;;;;;;2260390;61;20392;-55
2023/03/15 10:07:28;0.00;0.00;0.62;0.00;0.00;0.62;8.00;5.90;;;21.60;23.00;;;;;;2259767;61;20376;-57
2023/03/15 10:10:20;0.00;0.00;0.62;0.00;0.00;0.62;7.63;6.03;;;21.60;23.00;;;;;;2260192;61;20364;-54
2023/03/15 10:13:24;0.00;0.00;0.62;0.00;0.00;0.62;8.57;6.87;;;21.70;23.10;;;;;;2260649;61;20461;-55
2023/03/15 10:16:27;0.00;0.00;0.62;0.00;0.00;0.62;7.93;6.30;;;21.70;23.10;;;;;;2259805;61;20799;-54
2023/03/15 10:19:25;0.00;0.00;0.62;0.00;0.00;0.62;7.33;6.27;;;21.70;23.10;;;;;;2260229;61;20365;-55
2023/03/15 10:22:21;0.00;0.00;0.62;0.00;0.00;0.62;7.70;6.10;;;21.70;23.10;;;;;;2259724;61;20765;-54
2023/03/15 10:25:16;0.00;0.00;0.62;0.00;0.00;0.62;9.73;7.00;;;21.70;23.10;;;;;;2260329;61;20796;-57
2023/03/15 10:28:08;0.00;0.00;0.62;0.00;0.00;0.62;9.13;7.23;;;21.70;23.10;;;;;;2260715;61;20379;-50
2023/03/15 10:30:59;0.00;0.00;0.62;0.00;0.00;0.62;9.20;7.40;;;21.70;23.20;;;;;;2259419;61;20769;-56
2023/03/15 10:33:46;0.00;0.00;0.62;0.00;0.00;0.62;7.50;6.20;;;21.80;23.20;;;;;;2260234;61;20365;-54
2023/03/15 10:36:31;0.00;0.00;0.62;0.00;0.00;0.62;8.13;6.83;;;21.80;23.20;;;;;;2259553;61;20412;-55
2023/03/15 10:39:16;0.00;0.00;0.62;0.00;0.00;0.62;9.40;7.13;;;21.80;23.20;;;;;;2260213;61;20361;-53
2023/03/15 10:42:02;0.00;0.00;0.62;0.00;0.00;0.62;9.30;7.80;;;21.80;23.20;;;;;;2260359;61;20357;-53
2023/03/15 10:44:47;0.00;0.00;0.62;0.00;0.00;0.62;8.10;7.07;;;21.90;23.30;;;;;;2259485;61;20853;-56
2023/03/15 10:47:40;0.00;0.00;0.62;0.00;0.00;0.62;11.40;7.93;;;21.90;23.30;;;;;;2260141;61;20387;-53
2023/03/15 10:50:27;0.00;0.00;0.62;0.00;0.00;0.62;8.57;7.10;;;21.90;23.40;;;;;;2260019;61;20365;-55
2023/03/15 10:53:24;0.00;0.00;0.62;0.00;0.00;0.62;9.07;7.70;;;21.90;23.30;;;;;;2259625;61;20415;-56
2023/03/15 10:56:21;0.00;0.00;0.62;0.00;0.00;0.62;9.67;7.47;;;21.90;23.40;;;;;;2260252;61;20436;-55
2023/03/15 10:59:17;0.00;0.00;0.62;0.00;0.00;0.62;9.00;6.93;;;21.90;23.30;;;;;;2259140;61;20383;-53
2023/03/15 11:02:21;0.00;0.00;0.62;0.00;0.00;0.62;11.73;8.13;;;22.00;23.40;;;;;;2260431;61;20361;-57
2023/03/15 11:05:17;0.00;0.00;0.62;0.00;0.00;0.62;10.87;9.07;;;22.00;23.40;;;;;;2259984;61;20393;-54
2023/03/15 11:08:01;0.00;0.00;0.62;0.00;0.00;0.62;10.00;8.93;;;22.00;23.40;;;;;;2259609;61;20473;-55